createdAt,value
2022-12-08T00:00:21.830Z,2.95
2022-12-08T00:02:49.453Z,3.04
2022-12-08T00:05:34.512Z,2.88
2022-12-08T00:08:19.702Z,2.82
2022-12-08T00:10:49.405Z,2.84
2022-12-08T00:13:17.499Z,2.96
2022-12-08T00:15:46.258Z,3.07
2022-12-08T00:18:13.754Z,3.03
2022-12-08T00:20:41.174Z,3.12
2022-12-08T00:23:08.593Z,3.13
2022-12-08T00:25:36.544Z,3.09
2022-12-08T00:28:04.142Z,3.08
2022-12-08T00:30:31.534Z,3.14
2022-12-08T00:33:00.318Z,3.15
2022-12-08T00:35:27.710Z,3.09
2022-12-08T00:38:00.610Z,3.09
2022-12-08T00:40:28.646Z,2.98
2022-12-08T00:42:56.788Z,2.92
2022-12-08T00:45:24.419Z,2.90
2022-12-08T00:47:51.835Z,2.86
2022-12-08T00:50:20.618Z,2.90
2022-12-08T00:52:48.031Z,2.84
2022-12-08T00:55:15.597Z,2.80
2022-12-08T00:57:43.009Z,2.98
2022-12-08T01:00:11.308Z,2.88
2022-12-08T01:02:38.711Z,2.87
2022-12-08T01:05:06.901Z,2.93
2022-12-08T01:07:35.689Z,3.02
2022-12-08T01:10:03.836Z,3.08
2022-12-08T01:12:31.478Z,3.09
2022-12-08T01:15:02.235Z,3.12
2022-12-08T01:17:30.294Z,3.14
2022-12-08T01:19:58.733Z,3.15
2022-12-08T01:22:26.708Z,3.18
2022-12-08T01:24:55.451Z,3.09
2022-12-08T01:27:22.846Z,3.17
2022-12-08T01:29:50.247Z,3.19
2022-12-08T01:32:17.680Z,3.18
2022-12-08T01:34:45.091Z,3.32
2022-12-08T01:37:13.215Z,3.36
2022-12-08T01:39:41.429Z,3.11
2022-12-08T01:42:19.891Z,3.22
2022-12-08T01:44:59.056Z,3.31
2022-12-08T01:47:31.046Z,3.33
2022-12-08T01:49:58.751Z,3.39
2022-12-08T01:52:28.455Z,3.42
2022-12-08T01:54:59.661Z,3.44
2022-12-08T01:57:31.651Z,3.31
2022-12-08T02:00:03.047Z,3.30
2022-12-08T02:02:37.978Z,3.45
2022-12-08T02:05:07.252Z,3.34
2022-12-08T02:07:36.463Z,3.21
2022-12-08T02:10:04.434Z,3.23
2022-12-08T02:12:33.731Z,3.25
2022-12-08T02:15:05.000Z,3.30
2022-12-08T02:17:45.043Z,3.17
2022-12-08T02:20:25.730Z,3.07
2022-12-08T02:22:58.683Z,3.20
2022-12-08T02:25:31.382Z,3.11
2022-12-08T02:28:07.087Z,3.12
2022-12-08T02:30:39.562Z,3.18
2022-12-08T02:33:54.668Z,3.03
2022-12-08T02:36:25.825Z,3.04
2022-12-08T02:39:00.015Z,2.93
2022-12-08T02:41:33.316Z,3.03
2022-12-08T02:44:06.498Z,2.97
2022-12-08T02:46:36.988Z,2.94
2022-12-08T02:49:05.295Z,2.97
2022-12-08T02:51:34.099Z,3.15
2022-12-08T02:54:02.016Z,3.07
2022-12-08T02:56:46.736Z,3.01
2022-12-08T02:59:24.663Z,3.16
2022-12-08T03:02:06.923Z,3.14
2022-12-08T03:04:39.924Z,3.04
2022-12-08T03:07:11.775Z,3.13
2022-12-08T03:09:42.643Z,3.21
2022-12-08T03:12:14.876Z,3.07
2022-12-08T03:14:46.659Z,3.05
2022-12-08T03:17:14.849Z,3.05
2022-12-08T03:19:43.282Z,2.97
2022-12-08T03:22:12.805Z,3.00
2022-12-08T03:24:42.134Z,3.09
2022-12-08T03:27:11.014Z,3.04
2022-12-08T03:29:38.444Z,2.91
2022-12-08T03:32:10.083Z,3.08
2022-12-08T03:34:38.243Z,2.98
2022-12-08T03:37:05.884Z,3.01
2022-12-08T03:39:34.631Z,2.97
2022-12-08T03:42:02.106Z,3.07
2022-12-08T03:44:29.626Z,3.07
2022-12-08T03:46:57.063Z,2.99
2022-12-08T03:49:24.477Z,2.96
2022-12-08T03:51:52.182Z,2.99
2022-12-08T03:54:19.639Z,3.06
2022-12-08T03:56:48.504Z,3.06
2022-12-08T03:59:16.044Z,3.00
2022-12-08T04:01:43.619Z,2.88
2022-12-08T04:04:11.551Z,2.99
2022-12-08T04:06:38.980Z,2.93
2022-12-08T04:09:06.396Z,3.07
2022-12-08T04:11:33.844Z,3.22
2022-12-08T04:14:02.655Z,3.11
2022-12-08T04:16:30.178Z,3.32
2022-12-08T04:18:57.663Z,3.13
2022-12-08T04:21:25.085Z,3.24
2022-12-08T04:23:57.556Z,3.18
2022-12-08T04:26:28.149Z,3.24
2022-12-08T04:28:55.721Z,3.20
2022-12-08T04:31:24.521Z,3.26
2022-12-08T04:33:52.009Z,3.27
2022-12-08T04:36:19.521Z,3.22
2022-12-08T04:38:46.922Z,3.34
2022-12-08T04:41:14.322Z,3.34
2022-12-08T04:43:44.194Z,3.32
2022-12-08T04:46:12.412Z,3.42
2022-12-08T04:48:42.372Z,3.41
2022-12-08T04:51:16.004Z,3.27
2022-12-08T04:53:46.626Z,3.24
2022-12-08T04:56:14.700Z,3.30
2022-12-08T04:58:42.153Z,3.45
2022-12-08T05:01:09.775Z,3.42
2022-12-08T05:03:37.258Z,3.36
2022-12-08T05:06:07.111Z,3.40
2022-12-08T05:08:35.681Z,3.36
2022-12-08T05:11:04.220Z,3.44
2022-12-08T05:13:31.731Z,3.53
2022-12-08T05:16:04.253Z,3.35
2022-12-08T05:18:31.829Z,3.46
2022-12-08T05:20:59.654Z,3.35
2022-12-08T05:23:28.557Z,3.27
2022-12-08T05:25:56.161Z,3.40
2022-12-08T05:31:11.329Z,3.38
2022-12-08T05:33:38.878Z,3.30
2022-12-08T05:36:06.739Z,3.30
2022-12-08T05:38:35.514Z,3.14
2022-12-08T05:41:02.939Z,3.33
2022-12-08T05:43:30.395Z,3.34
2022-12-08T05:45:57.880Z,3.28
2022-12-08T05:48:25.681Z,3.10
2022-12-08T05:50:53.158Z,3.05
2022-12-08T05:53:21.409Z,2.91
2022-12-08T05:55:50.163Z,2.98
2022-12-08T05:58:19.895Z,3.08
2022-12-08T06:00:47.868Z,3.08
2022-12-08T06:03:17.065Z,3.01
2022-12-08T06:05:46.304Z,3.04
2022-12-08T06:08:14.412Z,3.07
2022-12-08T06:10:41.991Z,3.04
2022-12-08T06:13:10.832Z,2.92
2022-12-08T06:15:39.482Z,3.02
2022-12-08T06:18:07.940Z,3.06
2022-12-08T06:20:35.717Z,2.99
2022-12-08T06:23:03.361Z,3.00
2022-12-08T06:25:30.830Z,2.77
2022-12-08T06:27:58.253Z,3.00
2022-12-08T06:30:28.306Z,3.18
2022-12-08T06:32:55.720Z,3.19
2022-12-08T06:35:23.119Z,3.17
2022-12-08T06:37:51.633Z,3.17
2022-12-08T06:40:19.098Z,3.22
2022-12-08T06:42:47.064Z,3.30
2022-12-08T06:45:15.901Z,3.23
2022-12-08T06:47:44.840Z,3.16
2022-12-08T06:50:14.542Z,3.10
2022-12-08T06:52:50.821Z,3.20
2022-12-08T06:55:42.997Z,3.26
2022-12-08T06:58:08.712Z,3.27
2022-12-08T07:00:36.131Z,3.25
2022-12-08T07:03:04.919Z,3.29
2022-12-08T07:05:32.381Z,3.28
2022-12-08T07:08:00.177Z,3.21
2022-12-08T07:10:27.716Z,3.23
2022-12-08T07:12:55.169Z,3.14
2022-12-08T07:15:22.592Z,3.19
2022-12-08T07:17:53.582Z,3.17
2022-12-08T07:20:25.129Z,3.28
2022-12-08T07:22:53.611Z,3.44
2022-12-08T07:25:21.467Z,3.35
2022-12-08T07:27:50.347Z,3.51
2022-12-08T07:30:18.420Z,3.46
2022-12-08T07:32:46.070Z,3.29
2022-12-08T07:35:13.606Z,3.25
2022-12-08T07:37:42.435Z,3.32
2022-12-08T07:40:10.911Z,3.38
2022-12-08T07:42:38.362Z,3.50
2022-12-08T07:45:06.935Z,3.55
2022-12-08T07:47:34.338Z,3.51
2022-12-08T07:50:01.924Z,3.53
2022-12-08T07:52:31.520Z,3.48
2022-12-08T07:55:01.263Z,3.49
2022-12-08T07:57:28.804Z,3.36
2022-12-08T07:59:56.224Z,3.38
2022-12-08T08:02:25.673Z,3.23
2022-12-08T08:04:55.065Z,3.36
2022-12-08T08:07:22.532Z,3.37
2022-12-08T08:09:49.944Z,3.45
2022-12-08T08:12:33.926Z,3.47
2022-12-08T08:15:02.171Z,3.47
2022-12-08T08:17:30.298Z,3.35
2022-12-08T08:19:58.174Z,3.34
2022-12-08T08:22:26.079Z,3.38
2022-12-08T08:24:53.744Z,3.34
2022-12-08T08:27:22.727Z,3.33
2022-12-08T08:29:50.154Z,3.29
2022-12-08T08:32:17.593Z,3.18
2022-12-08T08:34:45.072Z,3.15
2022-12-08T08:37:12.569Z,3.25
2022-12-08T08:39:40.054Z,3.21
2022-12-08T08:42:07.502Z,3.11
2022-12-08T08:44:37.535Z,3.33
2022-12-08T08:47:04.970Z,3.28
2022-12-08T08:49:32.577Z,3.46
2022-12-08T08:51:59.986Z,3.51
2022-12-08T08:54:29.534Z,3.60
2022-12-08T08:56:58.159Z,3.58
2022-12-08T08:59:25.735Z,3.57
2022-12-08T09:01:55.026Z,3.50
2022-12-08T09:04:22.832Z,3.57
2022-12-08T09:06:50.447Z,3.61
2022-12-08T09:09:17.938Z,3.73
2022-12-08T09:11:45.507Z,3.69
2022-12-08T09:14:14.491Z,3.82
2022-12-08T09:16:42.681Z,3.72
2022-12-08T09:19:13.504Z,3.80
2022-12-08T09:21:41.356Z,3.63
2022-12-08T09:24:10.455Z,3.68
2022-12-08T09:26:37.903Z,3.67
2022-12-08T09:29:05.391Z,3.70
2022-12-08T09:31:32.971Z,3.91
2022-12-08T09:34:00.595Z,3.84
2022-12-08T09:36:29.346Z,4.00
2022-12-08T09:38:56.798Z,4.03
2022-12-08T09:41:35.940Z,4.02
2022-12-08T09:44:25.336Z,3.97
2022-12-08T09:46:53.943Z,3.93
2022-12-08T09:49:24.994Z,3.76
2022-12-08T09:51:54.047Z,3.69
2022-12-08T09:54:24.235Z,3.78
2022-12-08T09:56:52.598Z,3.88
2022-12-08T09:59:23.990Z,3.78
2022-12-08T10:01:52.596Z,3.92
2022-12-08T10:04:24.141Z,3.97
2022-12-08T10:07:02.284Z,3.87
2022-12-08T10:09:36.619Z,3.84
2022-12-08T10:12:11.977Z,3.99
2022-12-08T10:14:43.310Z,4.01
2022-12-08T10:17:19.085Z,4.03
2022-12-08T10:19:47.844Z,4.01
2022-12-08T10:22:21.271Z,4.20
2022-12-08T10:24:55.093Z,4.21
2022-12-08T10:27:23.109Z,4.22
2022-12-08T10:29:50.506Z,4.07
2022-12-08T10:32:19.920Z,4.02
2022-12-08T10:35:00.315Z,4.08
2022-12-08T10:37:30.585Z,4.19
2022-12-08T10:40:04.146Z,4.25
2022-12-08T10:42:36.661Z,4.31
2022-12-08T10:45:16.918Z,4.41
2022-12-08T10:47:56.651Z,4.51
2022-12-08T10:50:37.921Z,4.57
2022-12-08T10:53:14.545Z,4.57
2022-12-08T10:55:44.510Z,4.40
2022-12-08T10:58:35.499Z,4.56
2022-12-08T11:01:06.437Z,4.64
2022-12-08T11:03:36.035Z,4.50
2022-12-08T11:06:13.400Z,4.60
2022-12-08T11:08:51.784Z,4.64
2022-12-08T11:11:24.326Z,4.66
2022-12-08T11:13:55.080Z,4.57
2022-12-08T11:16:23.867Z,4.44
2022-12-08T11:18:58.313Z,4.54
2022-12-08T11:21:34.535Z,4.59
2022-12-08T11:24:11.719Z,4.48
2022-12-08T11:26:39.298Z,4.59
2022-12-08T11:29:07.080Z,4.70
2022-12-08T11:31:36.373Z,4.84
2022-12-08T11:34:04.484Z,4.78
2022-12-08T11:36:34.178Z,4.79
2022-12-08T11:39:05.564Z,4.71
2022-12-08T11:41:35.519Z,4.78
2022-12-08T11:44:06.686Z,4.92
2022-12-08T11:46:38.018Z,4.97
2022-12-08T11:49:09.744Z,4.96
2022-12-08T11:51:41.200Z,4.92
2022-12-08T11:54:19.196Z,4.83
2022-12-08T11:56:48.991Z,4.96
2022-12-08T11:59:20.896Z,5.26
2022-12-08T12:01:48.437Z,5.34
2022-12-08T12:04:21.250Z,5.34
2022-12-08T12:07:12.272Z,5.24
2022-12-08T12:09:52.203Z,5.07
2022-12-08T12:12:28.263Z,5.04
2022-12-08T12:15:34.810Z,5.05
2022-12-08T12:18:04.268Z,5.09
2022-12-08T12:20:34.055Z,5.03
2022-12-08T12:23:05.824Z,4.96
2022-12-08T12:25:35.838Z,4.86
2022-12-08T12:28:05.079Z,4.93
2022-12-08T12:30:50.005Z,4.91
2022-12-08T12:33:18.123Z,5.06
2022-12-08T12:35:47.819Z,5.04
2022-12-08T12:38:39.316Z,5.06
2022-12-08T12:41:09.346Z,5.04
2022-12-08T12:43:38.248Z,4.90
2022-12-08T12:46:43.963Z,4.84
2022-12-08T12:49:51.479Z,4.86
2022-12-08T12:52:53.274Z,4.88
2022-12-08T12:55:42.947Z,4.76
2022-12-08T12:58:24.299Z,4.71
2022-12-08T13:01:30.591Z,4.71
2022-12-08T13:04:07.310Z,4.67
2022-12-08T13:06:38.212Z,4.65
2022-12-08T13:09:07.099Z,4.68
2022-12-08T13:11:48.138Z,4.50
2022-12-08T13:14:28.576Z,4.49
2022-12-08T13:16:57.165Z,4.47
2022-12-08T13:19:26.938Z,4.52
2022-12-08T13:21:54.460Z,4.42
2022-12-08T13:24:34.317Z,4.21
2022-12-08T13:27:34.837Z,4.26
2022-12-08T13:30:42.685Z,4.23
2022-12-08T13:33:18.155Z,4.30
2022-12-08T13:35:53.759Z,4.35
2022-12-08T13:38:23.581Z,4.36
2022-12-08T13:40:51.588Z,4.32
2022-12-08T13:43:29.770Z,4.41
2022-12-08T13:55:19.713Z,4.35
2022-12-08T13:57:28.608Z,4.29
2022-12-08T14:00:01.325Z,4.41
2022-12-08T14:02:34.261Z,4.45
2022-12-08T14:05:19.121Z,4.55
2022-12-08T14:07:50.773Z,4.37
2022-12-08T14:10:21.579Z,4.00
2022-12-08T14:12:54.614Z,4.16
2022-12-08T14:15:22.376Z,4.05
2022-12-08T14:17:52.788Z,4.07
2022-12-08T14:20:24.714Z,4.04
2022-12-08T14:22:53.988Z,3.81
2022-12-08T14:25:23.240Z,3.79
2022-12-08T14:27:50.804Z,4.07
2022-12-08T14:30:21.049Z,3.93
2022-12-08T14:32:50.321Z,3.89
2022-12-08T14:35:23.530Z,3.75
2022-12-08T14:37:54.139Z,3.59
2022-12-08T14:40:24.638Z,3.71
2022-12-08T14:42:55.260Z,3.49
2022-12-08T14:45:22.839Z,3.56
2022-12-08T14:47:51.048Z,3.46
2022-12-08T14:50:38.022Z,3.40
2022-12-08T14:53:14.318Z,3.41
2022-12-08T14:55:41.859Z,3.22
2022-12-08T14:58:18.191Z,3.13
2022-12-08T15:00:47.252Z,3.11
2022-12-08T15:03:16.663Z,3.16
2022-12-08T15:05:44.287Z,3.19
2022-12-08T15:08:13.708Z,3.20
2022-12-08T15:10:47.923Z,3.19
2022-12-08T15:13:23.391Z,3.21
2022-12-08T15:15:52.618Z,3.09
2022-12-08T15:18:22.138Z,3.14
2022-12-08T15:20:51.427Z,3.17
2022-12-08T15:23:23.473Z,3.16
2022-12-08T15:25:51.251Z,3.11
2022-12-08T15:28:22.009Z,3.10
2022-12-08T15:30:50.531Z,2.87
2022-12-08T15:33:18.042Z,2.96
2022-12-08T15:35:45.691Z,3.05
2022-12-08T15:38:20.484Z,2.75
2022-12-08T15:40:49.405Z,2.80
2022-12-08T15:43:17.024Z,2.73
2022-12-08T15:45:57.522Z,2.64
2022-12-08T15:48:27.903Z,2.68
2022-12-08T15:50:55.991Z,2.86
2022-12-08T15:53:23.481Z,2.93
2022-12-08T15:56:25.638Z,2.99
2022-12-08T15:58:57.038Z,2.99
2022-12-08T16:01:25.497Z,2.87
2022-12-08T16:04:36.885Z,2.72
2022-12-08T16:09:32.045Z,2.82
2022-12-08T16:12:18.525Z,2.71
2022-12-08T16:17:34.279Z,2.67
2022-12-08T16:20:02.249Z,2.86
2022-12-08T16:25:20.623Z,3.02
2022-12-08T16:28:03.196Z,2.98
2022-12-08T16:30:36.208Z,2.93
2022-12-08T16:33:03.609Z,2.92
2022-12-08T16:35:31.154Z,3.21
2022-12-08T16:37:58.950Z,3.18
2022-12-08T16:40:26.454Z,3.38
2022-12-08T16:42:54.260Z,3.19
2022-12-08T16:45:23.685Z,3.41
2022-12-08T16:47:52.788Z,3.35
2022-12-08T16:50:22.737Z,3.45
2022-12-08T16:52:51.147Z,3.56
2022-12-08T16:55:20.096Z,3.61
2022-12-08T16:57:47.885Z,3.31
2022-12-08T17:00:18.676Z,3.60
2022-12-08T17:02:46.425Z,3.60
2022-12-08T17:05:15.066Z,3.45
2022-12-08T17:07:43.170Z,3.23
2022-12-08T17:10:12.824Z,3.53
2022-12-08T17:12:40.351Z,3.33
2022-12-08T17:15:09.495Z,3.51
2022-12-08T17:17:39.332Z,3.59
2022-12-08T17:20:09.480Z,3.64
2022-12-08T17:22:37.494Z,3.53
2022-12-08T17:25:06.228Z,3.77
2022-12-08T17:27:33.900Z,3.43
2022-12-08T17:30:01.395Z,3.58
2022-12-08T17:32:28.866Z,3.22
2022-12-08T17:34:57.641Z,3.51
2022-12-08T17:37:25.059Z,3.41
2022-12-08T17:39:52.623Z,3.42
2022-12-08T17:42:20.321Z,3.47
2022-12-08T17:44:47.823Z,3.33
2022-12-08T17:47:15.242Z,3.54
2022-12-08T17:49:42.659Z,3.02
2022-12-08T17:52:12.455Z,3.19
2022-12-08T17:54:39.907Z,3.37
2022-12-08T17:57:07.360Z,3.17
2022-12-08T17:59:34.798Z,3.28
2022-12-08T18:02:02.394Z,3.35
2022-12-08T18:04:29.895Z,3.39
2022-12-08T18:06:59.232Z,3.23
2022-12-08T18:09:28.070Z,3.39
2022-12-08T18:11:55.533Z,3.24
2022-12-08T18:14:22.989Z,3.45
2022-12-08T18:16:51.467Z,3.60
2022-12-08T18:19:19.043Z,3.59
2022-12-08T18:21:46.466Z,3.63
2022-12-08T18:24:17.693Z,3.42
2022-12-08T18:26:46.685Z,3.54
2022-12-08T18:29:14.182Z,3.69
2022-12-08T18:31:41.599Z,3.55
2022-12-08T18:34:09.102Z,3.67
2022-12-08T18:36:36.716Z,3.61
2022-12-08T18:39:10.260Z,3.66
2022-12-08T18:41:38.295Z,3.41
2022-12-08T18:44:07.024Z,3.30
2022-12-08T18:46:34.511Z,3.15
2022-12-08T18:49:01.998Z,3.18
2022-12-08T18:51:29.463Z,3.36
2022-12-08T18:53:56.905Z,3.37
2022-12-08T18:56:26.598Z,3.49
2022-12-08T18:58:58.488Z,3.43
2022-12-08T19:01:30.822Z,3.67
2022-12-08T19:04:26.812Z,3.85
2022-12-08T19:06:46.914Z,3.82
2022-12-08T19:09:15.133Z,3.63
2022-12-08T19:11:42.891Z,3.68
2022-12-08T19:14:10.842Z,3.74
2022-12-08T19:16:39.683Z,3.76
2022-12-08T19:19:07.180Z,3.84
2022-12-08T19:21:34.694Z,3.78
2022-12-08T19:24:02.692Z,3.82
2022-12-08T19:26:30.182Z,3.79
2022-12-08T19:28:58.425Z,3.83
2022-12-08T19:31:25.903Z,3.79
2022-12-08T19:33:54.810Z,3.84
2022-12-08T19:36:23.635Z,3.88
2022-12-08T19:39:08.695Z,3.91
2022-12-08T19:41:54.616Z,3.92
2022-12-08T19:44:41.986Z,3.89
2022-12-08T19:47:09.944Z,3.88
2022-12-08T19:49:39.195Z,3.96
2022-12-08T19:52:06.683Z,4.05
2022-12-08T19:54:34.146Z,4.11
2022-12-08T19:57:01.826Z,4.15
2022-12-08T19:59:30.058Z,4.19
2022-12-08T20:01:57.793Z,4.21
2022-12-08T20:04:26.696Z,4.19
2022-12-08T20:06:56.604Z,4.22
2022-12-08T20:09:24.727Z,4.20
2022-12-08T20:11:54.517Z,4.26
2022-12-08T20:14:22.667Z,4.31
2022-12-08T20:16:51.783Z,4.33
2022-12-08T20:19:19.484Z,4.37
2022-12-08T20:21:46.960Z,4.37
2022-12-08T20:24:16.987Z,4.33
2022-12-08T20:26:44.458Z,4.35
2022-12-08T20:29:12.272Z,4.36
2022-12-08T20:31:39.877Z,4.37
2022-12-08T20:34:07.340Z,4.17
2022-12-08T20:36:34.788Z,4.13
2022-12-08T20:39:02.192Z,4.00
2022-12-08T20:41:33.769Z,4.01
2022-12-08T20:44:06.292Z,3.92
2022-12-08T20:46:34.376Z,3.96
2022-12-08T20:49:03.844Z,3.90
2022-12-08T20:51:32.517Z,3.77
2022-12-08T20:54:00.881Z,3.65
2022-12-08T20:56:31.064Z,3.67
2022-12-08T20:59:00.118Z,3.56
2022-12-08T21:01:27.837Z,3.32
2022-12-08T21:03:56.617Z,3.26
2022-12-08T21:06:26.704Z,3.29
2022-12-08T21:08:54.470Z,3.45
2022-12-08T21:11:21.999Z,3.37
2022-12-08T21:13:49.462Z,3.32
2022-12-08T21:16:18.387Z,2.99
2022-12-08T21:18:45.868Z,3.31
2022-12-08T21:21:15.040Z,3.46
2022-12-08T21:23:42.911Z,3.41
2022-12-08T21:26:11.770Z,3.39
2022-12-08T21:28:39.427Z,3.10
2022-12-08T21:31:08.597Z,3.08
2022-12-08T21:33:37.556Z,3.17
2022-12-08T21:36:08.828Z,3.22
2022-12-08T21:38:36.885Z,3.29
2022-12-08T21:41:05.634Z,3.45
2022-12-08T21:43:33.552Z,3.38
2022-12-08T21:46:01.125Z,3.41
2022-12-08T21:48:28.771Z,3.39
2022-12-08T21:50:58.097Z,3.37
2022-12-08T21:53:26.474Z,3.34
2022-12-08T21:55:54.057Z,3.31
2022-12-08T21:58:21.573Z,3.31
2022-12-08T22:00:49.293Z,3.12
2022-12-08T22:03:17.143Z,3.22
2022-12-08T22:05:44.760Z,3.06
2022-12-08T22:08:14.808Z,3.27
2022-12-08T22:10:47.692Z,2.92
2022-12-08T22:13:15.192Z,3.05
2022-12-08T22:15:42.932Z,3.20
2022-12-08T22:18:11.318Z,2.96
2022-12-08T22:20:43.897Z,2.94
2022-12-08T22:23:13.340Z,2.82
2022-12-08T22:25:40.957Z,2.68
2022-12-08T22:28:08.480Z,2.60
2022-12-08T22:30:39.246Z,2.48
2022-12-08T22:33:07.207Z,2.42
2022-12-08T22:35:34.826Z,2.17
2022-12-08T22:38:02.324Z,2.09
2022-12-08T22:40:31.083Z,2.03
2022-12-08T22:42:58.772Z,1.76
2022-12-08T22:45:27.098Z,1.60
2022-12-08T22:47:54.654Z,1.33
2022-12-08T22:50:22.375Z,1.01
2022-12-08T22:52:49.939Z,1.20
2022-12-08T22:55:17.483Z,1.12
2022-12-08T22:57:46.451Z,1.09
2022-12-08T23:00:14.651Z,1.44
2022-12-08T23:02:42.251Z,1.51
2022-12-08T23:05:10.917Z,1.57
2022-12-08T23:07:38.947Z,1.51
2022-12-08T23:10:08.739Z,1.38
2022-12-08T23:12:37.090Z,1.47
2022-12-08T23:15:07.238Z,1.55
2022-12-08T23:17:35.598Z,1.62
2022-12-08T23:20:03.497Z,1.73
2022-12-08T23:22:31.385Z,1.85
2022-12-08T23:24:58.996Z,1.73
2022-12-08T23:27:26.677Z,1.81
2022-12-08T23:29:54.203Z,1.65
2022-12-08T23:32:23.068Z,1.63
2022-12-08T23:34:50.767Z,1.60
2022-12-08T23:37:18.392Z,1.65
2022-12-08T23:39:46.013Z,1.78
2022-12-08T23:42:13.451Z,1.37
2022-12-08T23:44:41.456Z,1.40
2022-12-08T23:47:09.142Z,1.43
2022-12-08T23:49:38.011Z,1.46
2022-12-08T23:52:05.927Z,1.67
2022-12-08T23:54:33.737Z,1.92
2022-12-08T23:57:01.170Z,1.83
2022-12-08T23:59:28.574Z,2.01
